createdAt,value
2019-04-03T00:01:12.151Z,13.60
2019-04-03T00:03:42.792Z,13.03
2019-04-03T00:06:13.474Z,13.27
2019-04-03T00:08:44.197Z,13.60
2019-04-03T00:11:14.901Z,14.73
2019-04-03T00:13:45.578Z,14.53
2019-04-03T00:16:26.125Z,14.03
2019-04-03T00:18:56.741Z,13.83
2019-04-03T00:21:27.508Z,13.53
2019-04-03T00:23:58.199Z,13.30
2019-04-03T00:26:32.578Z,11.87
2019-04-03T00:29:03.322Z,12.27
2019-04-03T00:31:34.978Z,11.43
2019-04-03T00:34:05.567Z,11.23
2019-04-03T00:36:36.270Z,11.43
2019-04-03T00:39:24.429Z,10.57
2019-04-03T00:41:55.535Z,7.93
2019-04-03T00:44:44.610Z,7.70
2019-04-03T00:47:21.049Z,7.13
2019-04-03T00:50:33.486Z,6.87
2019-04-03T00:53:04.150Z,7.23
2019-04-03T00:55:34.619Z,6.73
2019-04-03T00:58:32.722Z,5.37
2019-04-03T01:01:03.593Z,5.33
2019-04-03T01:03:34.268Z,5.13
2019-04-03T01:06:05.238Z,3.93
2019-04-03T01:08:36.031Z,4.30
2019-04-03T01:11:07.022Z,4.07
2019-04-03T01:13:37.845Z,3.87
2019-04-03T01:16:08.613Z,4.37
2019-04-03T01:18:39.457Z,4.33
2019-04-03T01:21:10.069Z,3.97
2019-04-03T01:23:40.642Z,3.97
2019-04-03T01:26:11.377Z,3.90
2019-04-03T01:28:42.549Z,4.00
2019-04-03T01:31:14.886Z,3.93
2019-04-03T01:33:46.867Z,4.47
2019-04-03T01:36:18.215Z,4.10
2019-04-03T01:38:49.726Z,5.53
2019-04-03T01:41:22.035Z,5.27
2019-04-03T01:43:53.840Z,5.73
2019-04-03T01:46:27.200Z,6.03
2019-04-03T01:49:18.567Z,6.10
2019-04-03T01:51:49.383Z,6.77
2019-04-03T01:54:20.225Z,6.77
2019-04-03T01:56:50.845Z,6.93
2019-04-03T01:59:21.417Z,6.00
2019-04-03T02:01:51.967Z,6.70
2019-04-03T02:04:22.615Z,6.80
2019-04-03T02:07:10.646Z,7.00
2019-04-03T02:09:41.449Z,7.07
2019-04-03T02:12:12.013Z,7.43
2019-04-03T02:14:42.617Z,6.80
2019-04-03T02:17:13.333Z,7.67
2019-04-03T02:19:43.959Z,6.73
2019-04-03T02:22:14.483Z,6.67
2019-04-03T02:24:45.088Z,7.03
2019-04-03T02:27:15.601Z,7.90
2019-04-03T02:29:46.784Z,7.07
2019-04-03T02:32:17.357Z,7.27
2019-04-03T02:34:53.007Z,7.50
2019-04-03T02:37:23.977Z,6.83
2019-04-03T02:39:59.155Z,6.90
2019-04-03T02:42:26.927Z,7.10
2019-04-03T02:44:57.711Z,6.97
2019-04-03T02:47:30.410Z,7.27
2019-04-03T02:50:00.603Z,7.57
2019-04-03T02:52:31.302Z,7.20
2019-04-03T02:55:02.152Z,7.27
2019-04-03T02:57:32.736Z,7.40
2019-04-03T03:00:21.276Z,7.97
2019-04-03T03:02:51.847Z,6.90
2019-04-03T03:05:22.595Z,7.10
2019-04-03T03:07:53.190Z,7.47
2019-04-03T03:10:23.770Z,6.83
2019-04-03T03:12:59.932Z,7.13
2019-04-03T03:15:28.379Z,7.23
2019-04-03T03:17:59.331Z,6.80
2019-04-03T03:20:52.859Z,7.50
2019-04-03T03:23:24.281Z,6.93
2019-04-03T03:25:55.383Z,6.53
2019-04-03T03:28:32.629Z,7.53
2019-04-03T03:31:05.961Z,7.07
2019-04-03T03:34:06.880Z,6.57
2019-04-03T03:36:50.781Z,6.97
2019-04-03T03:39:21.693Z,7.67
2019-04-03T03:41:56.202Z,7.20
2019-04-03T03:44:28.601Z,5.97
2019-04-03T03:47:01.100Z,6.30
2019-04-03T03:49:37.193Z,6.77
2019-04-03T03:52:14.791Z,6.20
2019-04-03T03:54:53.700Z,6.23
2019-04-03T03:57:24.550Z,6.30
2019-04-03T04:00:01.298Z,6.03
2019-04-03T04:02:43.495Z,6.53
2019-04-03T04:05:12.444Z,6.03
2019-04-03T04:07:45.408Z,6.20
2019-04-03T04:10:23.545Z,6.63
2019-04-03T04:12:52.767Z,6.10
2019-04-03T04:15:31.830Z,5.67
2019-04-03T04:18:05.338Z,5.60
2019-04-03T04:24:02.494Z,5.50
2019-04-03T04:26:33.155Z,5.70
2019-04-03T04:29:03.795Z,5.43
2019-04-03T04:32:00.586Z,6.73
2019-04-03T04:34:31.488Z,5.40
2019-04-03T04:37:03.257Z,5.10
2019-04-03T04:39:38.881Z,5.97
2019-04-03T04:42:09.645Z,5.37
2019-04-03T04:44:43.516Z,5.57
2019-04-03T04:47:15.106Z,5.23
2019-04-03T04:49:46.410Z,5.33
2019-04-03T04:52:17.143Z,5.83
2019-04-03T04:54:48.829Z,5.60
2019-04-03T04:57:19.602Z,6.20
2019-04-03T04:59:55.689Z,6.07
2019-04-03T05:02:32.296Z,6.83
2019-04-03T05:05:10.237Z,6.17
2019-04-03T05:07:53.051Z,6.23
2019-04-03T05:10:23.647Z,6.67
2019-04-03T05:12:54.223Z,7.13
2019-04-03T05:15:25.035Z,7.13
2019-04-03T05:17:57.682Z,7.10
2019-04-03T05:20:35.904Z,7.43
2019-04-03T05:23:14.636Z,7.07
2019-04-03T05:26:09.780Z,7.17
2019-04-03T05:28:53.293Z,7.30
2019-04-03T05:31:13.029Z,6.77
2019-04-03T05:33:43.669Z,7.17
2019-04-03T05:36:15.415Z,7.23
2019-04-03T05:38:46.679Z,7.97
2019-04-03T05:41:17.368Z,7.80
2019-04-03T05:43:49.177Z,6.90
2019-04-03T05:46:19.969Z,6.90
2019-04-03T05:48:50.632Z,7.20
2019-04-03T05:51:23.261Z,7.30
2019-04-03T05:53:59.864Z,8.47
2019-04-03T05:56:43.306Z,8.53
2019-04-03T05:59:14.193Z,8.30
2019-04-03T06:01:46.651Z,8.13
2019-04-03T06:04:17.263Z,7.93
2019-04-03T06:06:47.923Z,7.83
2019-04-03T06:09:20.360Z,7.43
2019-04-03T06:11:52.643Z,7.63
2019-04-03T06:14:23.942Z,7.17
2019-04-03T06:17:22.950Z,6.77
2019-04-03T06:19:53.509Z,6.50
2019-04-03T06:22:24.166Z,7.53
2019-04-03T06:25:17.747Z,5.90
2019-04-03T06:27:48.422Z,6.27
2019-04-03T06:30:19.573Z,5.77
2019-04-03T06:32:55.057Z,5.70
2019-04-03T06:35:26.096Z,5.73
2019-04-03T06:38:00.176Z,5.50
2019-04-03T06:40:36.384Z,6.23
2019-04-03T06:43:07.017Z,5.83
2019-04-03T06:46:09.752Z,6.30
2019-04-03T06:48:46.367Z,6.50
2019-04-03T06:51:22.541Z,6.33
2019-04-03T06:53:53.135Z,6.07
2019-04-03T06:56:23.945Z,6.67
2019-04-03T06:58:55.577Z,6.50
2019-04-03T07:01:26.316Z,6.50
2019-04-03T07:04:09.252Z,6.30
2019-04-03T07:06:45.773Z,5.57
2019-04-03T07:09:24.005Z,6.53
2019-04-03T07:11:49.221Z,5.90
2019-04-03T07:14:38.135Z,6.13
2019-04-03T07:17:25.306Z,6.03
2019-04-03T07:20:22.906Z,5.97
2019-04-03T07:22:53.676Z,6.17
2019-04-03T07:25:54.324Z,5.90
2019-04-03T07:28:42.359Z,5.53
2019-04-03T07:31:13.277Z,5.97
2019-04-03T07:33:44.016Z,6.17
2019-04-03T07:36:17.854Z,6.17
2019-04-03T07:38:48.435Z,5.97
2019-04-03T07:41:22.050Z,5.40
2019-04-03T07:44:00.735Z,5.40
2019-04-03T07:46:32.994Z,5.63
2019-04-03T07:49:03.845Z,5.60
2019-04-03T07:51:38.210Z,5.47
2019-04-03T07:54:14.965Z,5.60
2019-04-03T07:57:12.473Z,6.10
2019-04-03T08:00:00.926Z,5.77
2019-04-03T08:02:33.671Z,5.73
2019-04-03T08:05:16.380Z,6.13
2019-04-03T08:07:47.426Z,5.20
2019-04-03T08:10:18.418Z,5.60
2019-04-03T08:12:59.271Z,6.30
2019-04-03T08:15:45.538Z,6.20
2019-04-03T08:18:33.001Z,6.17
2019-04-03T08:21:03.632Z,5.70
2019-04-03T08:23:37.074Z,5.80
2019-04-03T08:26:12.957Z,5.87
2019-04-03T08:28:43.635Z,5.53
2019-04-03T08:31:19.058Z,5.13
2019-04-03T08:33:49.711Z,5.70
2019-04-03T08:36:26.396Z,5.97
2019-04-03T08:39:16.076Z,5.67
2019-04-03T08:41:47.543Z,5.63
2019-04-03T08:44:18.369Z,5.60
2019-04-03T08:46:49.062Z,5.07
2019-04-03T08:49:20.647Z,5.07
2019-04-03T08:51:55.876Z,6.03
2019-04-03T08:54:26.492Z,4.70
2019-04-03T08:56:58.136Z,4.60
2019-04-03T09:00:12.068Z,4.90
2019-04-03T09:03:03.604Z,5.67
2019-04-03T09:05:33.521Z,4.50
2019-04-03T09:08:08.221Z,5.20
2019-04-03T09:10:38.865Z,5.07
2019-04-03T09:13:17.710Z,5.23
2019-04-03T09:15:41.874Z,5.40
2019-04-03T09:18:12.469Z,5.97
2019-04-03T09:20:45.497Z,5.60
2019-04-03T09:23:16.130Z,5.80
2019-04-03T09:25:46.709Z,6.03
2019-04-03T09:28:17.380Z,5.90
2019-04-03T09:30:58.822Z,6.40
2019-04-03T09:33:36.548Z,6.20
2019-04-03T09:36:09.311Z,6.23
2019-04-03T09:38:41.761Z,5.87
2019-04-03T09:44:24.675Z,6.70
2019-04-03T09:46:55.169Z,6.57
2019-04-03T09:49:38.268Z,6.07
2019-04-03T09:52:14.025Z,5.73
2019-04-03T09:54:44.666Z,6.60
2019-04-03T09:57:15.492Z,6.33
2019-04-03T09:59:52.078Z,6.87
2019-04-03T10:02:32.744Z,6.40
2019-04-03T10:05:15.569Z,6.40
2019-04-03T10:07:46.230Z,6.10
2019-04-03T10:10:18.254Z,7.07
2019-04-03T10:12:53.655Z,7.20
2019-04-03T10:15:36.859Z,7.13
2019-04-03T10:18:35.359Z,8.70
2019-04-03T10:21:20.825Z,8.20
2019-04-03T10:23:52.067Z,8.53
2019-04-03T10:26:30.998Z,8.13
2019-04-03T10:29:06.041Z,8.77
2019-04-03T10:31:36.722Z,8.97
2019-04-03T10:34:24.683Z,9.43
2019-04-03T10:36:58.401Z,8.80
2019-04-03T10:39:28.999Z,10.00
2019-04-03T10:42:00.412Z,9.30
2019-04-03T10:44:49.289Z,11.13
2019-04-03T10:47:42.391Z,11.03
2019-04-03T10:50:14.102Z,10.57
2019-04-03T10:52:57.121Z,10.80
2019-04-03T10:55:33.583Z,11.30
2019-04-03T10:58:04.965Z,12.13
2019-04-03T11:00:36.626Z,12.33
2019-04-03T11:03:07.386Z,11.97
2019-04-03T11:05:38.301Z,12.70
2019-04-03T11:08:40.158Z,11.43
2019-04-03T11:11:14.700Z,11.50
2019-04-03T11:13:53.047Z,11.63
2019-04-03T11:16:25.778Z,12.20
2019-04-03T11:18:59.914Z,11.87
2019-04-03T11:21:28.743Z,12.27
2019-04-03T11:23:59.368Z,13.10
2019-04-03T11:26:38.299Z,12.27
2019-04-03T11:29:11.148Z,12.23
2019-04-03T11:31:56.550Z,11.00
2019-04-03T11:34:27.082Z,11.80
2019-04-03T11:37:00.545Z,11.40
2019-04-03T11:39:37.502Z,11.83
2019-04-03T11:42:08.784Z,12.57
2019-04-03T11:44:41.581Z,12.23
2019-04-03T11:47:14.749Z,11.87
2019-04-03T11:49:47.332Z,12.13
2019-04-03T11:52:18.005Z,12.87
2019-04-03T11:54:53.402Z,12.27
2019-04-03T11:57:26.694Z,12.50
2019-04-03T11:59:57.059Z,12.57
2019-04-03T12:02:28.321Z,12.10
2019-04-03T12:05:13.148Z,11.17
2019-04-03T12:07:43.900Z,8.80
2019-04-03T12:10:16.881Z,10.47
2019-04-03T12:12:48.502Z,10.37
2019-04-03T12:15:21.110Z,10.90
2019-04-03T12:18:02.358Z,10.77
2019-04-03T12:20:41.019Z,10.50
2019-04-03T12:23:13.077Z,8.23
2019-04-03T12:25:53.843Z,8.60
2019-04-03T12:28:31.597Z,9.23
2019-04-03T12:31:03.863Z,8.53
2019-04-03T12:33:34.482Z,7.20
2019-04-03T12:36:07.378Z,7.90
2019-04-03T12:38:39.868Z,7.53
2019-04-03T12:41:22.565Z,7.90
2019-04-03T12:43:53.244Z,8.50
2019-04-03T12:46:41.029Z,9.47
2019-04-03T12:49:12.783Z,8.53
2019-04-03T12:51:43.446Z,9.00
2019-04-03T12:54:14.213Z,9.23
2019-04-03T12:56:46.932Z,9.57
2019-04-03T12:59:24.410Z,9.63
2019-04-03T13:02:00.556Z,9.63
2019-04-03T13:04:32.451Z,9.77
2019-04-03T13:07:05.333Z,9.67
2019-04-03T13:09:52.482Z,10.87
2019-04-03T13:12:35.826Z,11.43
2019-04-03T13:15:08.143Z,10.13
2019-04-03T13:17:44.272Z,10.90
2019-04-03T13:20:15.958Z,10.73
2019-04-03T13:22:50.723Z,11.47
2019-04-03T13:25:22.136Z,10.97
2019-04-03T13:27:53.008Z,10.97
2019-04-03T13:30:31.294Z,11.07
2019-04-03T13:33:07.230Z,11.10
2019-04-03T13:35:57.372Z,11.77
2019-04-03T13:41:23.755Z,10.90
2019-04-03T13:43:55.054Z,10.67
2019-04-03T13:46:30.062Z,10.63
2019-04-03T13:49:04.034Z,10.23
2019-04-03T13:51:34.638Z,9.77
2019-04-03T13:54:10.512Z,9.30
2019-04-03T13:56:43.123Z,9.37
2019-04-03T13:59:16.494Z,9.40
2019-04-03T14:01:47.245Z,9.20
2019-04-03T14:04:22.778Z,8.63
2019-04-03T14:06:54.079Z,9.80
2019-04-03T14:09:24.977Z,8.73
2019-04-03T14:11:55.856Z,8.90
2019-04-03T14:14:27.169Z,8.97
2019-04-03T14:17:38.727Z,8.23
2019-04-03T14:20:14.147Z,8.30
2019-04-03T14:22:45.159Z,8.20
2019-04-03T14:25:22.218Z,7.87
2019-04-03T14:28:30.098Z,7.40
2019-04-03T14:31:00.821Z,7.93
2019-04-03T14:33:41.785Z,7.97
2019-04-03T14:36:18.562Z,8.10
2019-04-03T14:38:54.832Z,7.23
2019-04-03T14:41:27.688Z,6.93
2019-04-03T14:44:09.267Z,6.10
2019-04-03T14:46:59.941Z,6.57
2019-04-03T14:49:34.080Z,6.97
2019-04-03T14:52:05.281Z,7.17
2019-04-03T14:54:37.165Z,7.33
2019-04-03T14:57:17.967Z,6.83
2019-04-03T14:59:46.482Z,5.53
2019-04-03T15:02:17.161Z,5.50
2019-04-03T15:04:50.062Z,4.77
2019-04-03T15:07:20.974Z,4.60
2019-04-03T15:09:59.404Z,4.53
2019-04-03T15:12:30.276Z,4.53
2019-04-03T15:15:01.860Z,4.87
2019-04-03T15:17:36.206Z,4.70
2019-04-03T15:20:10.398Z,4.90
2019-04-03T15:22:41.411Z,5.00
2019-04-03T15:25:12.915Z,4.57
2019-04-03T15:27:54.083Z,4.20
2019-04-03T15:30:25.816Z,4.20
2019-04-03T15:32:57.455Z,4.83
2019-04-03T15:35:28.131Z,4.40
2019-04-03T15:38:00.442Z,4.90
2019-04-03T15:40:33.112Z,4.47
2019-04-03T15:43:03.874Z,4.80
2019-04-03T15:45:34.682Z,4.27
2019-04-03T15:48:05.359Z,4.63
2019-04-03T15:50:38.459Z,4.20
2019-04-03T15:53:10.454Z,4.50
2019-04-03T15:55:47.299Z,4.23
2019-04-03T15:58:26.321Z,4.00
2019-04-03T16:00:57.388Z,4.60
2019-04-03T16:03:36.396Z,4.40
2019-04-03T16:06:07.650Z,4.77
2019-04-03T16:08:39.483Z,4.70
2019-04-03T16:11:14.928Z,5.00
2019-04-03T16:14:12.551Z,5.40
2019-04-03T16:16:53.950Z,5.33
2019-04-03T16:19:25.775Z,5.40
2019-04-03T16:25:10.171Z,5.77
2019-04-03T16:27:53.351Z,5.73
2019-04-03T16:30:26.381Z,5.83
2019-04-03T16:33:06.278Z,6.00
2019-04-03T16:35:44.853Z,5.80
2019-04-03T16:38:27.687Z,5.97
2019-04-03T16:40:56.759Z,5.80
2019-04-03T16:43:27.441Z,5.23
2019-04-03T16:45:58.360Z,5.77
2019-04-03T16:48:30.162Z,5.60
2019-04-03T16:51:01.540Z,5.20
2019-04-03T16:53:45.964Z,5.73
2019-04-03T16:56:18.617Z,5.27
2019-04-03T16:58:50.054Z,5.43
2019-04-03T17:01:21.227Z,5.40
2019-04-03T17:03:54.692Z,4.60
2019-04-03T17:06:26.983Z,4.50
2019-04-03T17:09:05.677Z,4.67
2019-04-03T17:11:50.166Z,4.87
2019-04-03T17:14:24.410Z,4.13
2019-04-03T17:16:55.059Z,4.33
2019-04-03T17:19:26.303Z,4.40
2019-04-03T17:21:58.966Z,4.73
2019-04-03T17:24:41.027Z,3.90
2019-04-03T17:27:12.429Z,4.00
2019-04-03T17:29:47.174Z,4.13
2019-04-03T17:32:18.597Z,3.47
2019-04-03T17:34:49.968Z,3.93
2019-04-03T17:37:32.021Z,3.90
2019-04-03T17:40:04.102Z,4.20
2019-04-03T17:42:37.166Z,3.90
2019-04-03T17:45:15.502Z,3.53
2019-04-03T17:47:49.383Z,3.90
2019-04-03T17:50:22.478Z,3.50
2019-04-03T17:52:53.660Z,4.13
2019-04-03T17:55:29.891Z,3.83
2019-04-03T17:58:01.042Z,3.80
2019-04-03T18:00:32.072Z,3.40
2019-04-03T18:03:08.237Z,3.57
2019-04-03T18:05:40.640Z,4.17
2019-04-03T18:08:17.790Z,3.90
2019-04-03T18:10:48.843Z,3.77
2019-04-03T18:13:29.409Z,3.70
2019-04-03T18:16:01.094Z,3.50
2019-04-03T18:18:33.416Z,3.67
2019-04-03T18:21:09.782Z,3.30
2019-04-03T18:23:41.693Z,3.80
2019-04-03T18:26:13.399Z,3.60
2019-04-03T18:28:46.819Z,3.33
2019-04-03T18:31:19.281Z,3.20
2019-04-03T18:33:50.323Z,3.53
2019-04-03T18:36:21.475Z,3.50
2019-04-03T18:38:52.673Z,3.30
2019-04-03T18:41:28.837Z,2.93
2019-04-03T18:44:00.362Z,2.83
2019-04-03T18:46:36.855Z,3.17
2019-04-03T18:49:07.426Z,3.10
2019-04-03T18:51:39.293Z,2.73
2019-04-03T18:54:16.009Z,3.00
2019-04-03T18:56:48.231Z,3.10
2019-04-03T18:59:20.085Z,3.17
2019-04-03T19:01:58.833Z,2.70
2019-04-03T19:04:30.050Z,2.70
2019-04-03T19:07:01.089Z,2.73
2019-04-03T19:09:33.160Z,2.77
2019-04-03T19:12:08.624Z,2.80
2019-04-03T19:14:37.661Z,2.70
2019-04-03T19:17:09.782Z,2.87
2019-04-03T19:19:40.815Z,3.00
2019-04-03T19:22:12.015Z,3.00
2019-04-03T19:24:49.140Z,2.77
2019-04-03T19:27:33.021Z,2.90
2019-04-03T19:30:07.701Z,3.43
2019-04-03T19:32:43.337Z,2.97
2019-04-03T19:35:17.237Z,3.33
2019-04-03T19:37:49.560Z,3.10
2019-04-03T19:40:23.653Z,3.53
2019-04-03T19:42:55.163Z,2.80
2019-04-03T19:45:26.472Z,3.37
2019-04-03T19:47:57.490Z,3.40
2019-04-03T19:50:29.902Z,3.50
2019-04-03T19:53:08.115Z,3.40
2019-04-03T19:55:49.894Z,3.40
2019-04-03T19:58:22.956Z,3.70
2019-04-03T20:00:54.107Z,4.00
2019-04-03T20:03:25.138Z,3.93
2019-04-03T20:06:02.018Z,3.53
2019-04-03T20:08:43.401Z,4.03
2019-04-03T20:11:22.860Z,4.00
2019-04-03T20:13:53.789Z,4.27
2019-04-03T20:16:25.168Z,4.17
2019-04-03T20:18:58.132Z,4.30
2019-04-03T20:21:31.207Z,4.23
2019-04-03T20:24:02.244Z,4.40
2019-04-03T20:26:41.090Z,4.57
2019-04-03T20:29:12.133Z,4.60
2019-04-03T20:31:43.253Z,4.57
2019-04-03T20:34:54.950Z,6.20
2019-04-03T20:37:33.471Z,5.30
2019-04-03T20:40:04.912Z,4.50
2019-04-03T20:42:35.957Z,5.00
2019-04-03T20:45:07.206Z,5.10
2019-04-03T20:47:38.359Z,4.77
2019-04-03T20:50:15.992Z,4.93
2019-04-03T20:52:46.907Z,5.07
2019-04-03T20:55:26.116Z,4.93
2019-04-03T20:57:57.166Z,5.00
2019-04-03T21:00:28.297Z,4.93
2019-04-03T21:03:12.694Z,4.97
2019-04-03T21:05:48.871Z,5.20
2019-04-03T21:08:22.815Z,6.03
2019-04-03T21:10:55.181Z,5.70
2019-04-03T21:13:30.428Z,6.20
2019-04-03T21:16:01.234Z,6.23
2019-04-03T21:18:35.875Z,6.43
2019-04-03T21:21:13.037Z,6.07
2019-04-03T21:23:46.004Z,6.40
2019-04-03T21:26:16.823Z,6.47
2019-04-03T21:28:47.603Z,6.07
2019-04-03T21:31:29.780Z,5.90
2019-04-03T21:34:11.043Z,5.90
2019-04-03T21:36:41.622Z,5.73
2019-04-03T21:39:22.627Z,6.37
2019-04-03T21:41:55.872Z,6.03
2019-04-03T21:44:27.165Z,5.87
2019-04-03T21:46:57.940Z,6.20
2019-04-03T21:49:28.620Z,6.20
2019-04-03T21:52:05.147Z,6.67
2019-04-03T21:54:35.708Z,6.13
2019-04-03T21:57:11.850Z,7.07
2019-04-03T21:59:42.609Z,7.67
2019-04-03T22:02:21.419Z,7.67
2019-04-03T22:04:53.975Z,8.17
2019-04-03T22:07:28.255Z,8.20
2019-04-03T22:09:59.996Z,8.70
2019-04-03T22:12:31.885Z,8.43
2019-04-03T22:15:02.779Z,8.23
2019-04-03T22:17:34.100Z,9.97
2019-04-03T22:20:05.583Z,9.13
2019-04-03T22:22:36.388Z,9.37
2019-04-03T22:25:08.980Z,9.57
2019-04-03T22:27:40.785Z,9.87
2019-04-03T22:30:12.938Z,9.63
2019-04-03T22:32:43.718Z,10.60
2019-04-03T22:35:14.638Z,10.43
2019-04-03T22:37:45.549Z,11.30
2019-04-03T22:40:22.424Z,11.27
2019-04-03T22:42:53.207Z,12.27
2019-04-03T22:45:23.934Z,12.07
2019-04-03T22:47:56.335Z,12.57
2019-04-03T22:50:27.677Z,12.27
2019-04-03T22:52:59.455Z,12.80
2019-04-03T22:55:42.262Z,12.27
2019-04-03T22:58:21.525Z,11.90
2019-04-03T23:00:51.510Z,11.87
2019-04-03T23:03:26.341Z,11.97
2019-04-03T23:06:05.305Z,12.47
2019-04-03T23:08:36.078Z,12.63
2019-04-03T23:11:10.975Z,13.37
2019-04-03T23:13:47.698Z,13.50
2019-04-03T23:16:27.394Z,13.27
2019-04-03T23:18:58.190Z,12.93
2019-04-03T23:21:43.008Z,13.13
2019-04-03T23:24:15.808Z,13.63
2019-04-03T23:26:46.480Z,12.47
2019-04-03T23:29:17.190Z,13.47
2019-04-03T23:31:47.879Z,14.13
2019-04-03T23:34:19.025Z,12.97
2019-04-03T23:36:50.273Z,14.37
2019-04-03T23:39:20.988Z,13.97
2019-04-03T23:41:51.673Z,13.30
2019-04-03T23:44:22.375Z,14.23
2019-04-03T23:46:53.188Z,13.40
2019-04-03T23:49:30.536Z,13.63
2019-04-03T23:52:01.231Z,13.10
2019-04-03T23:54:33.932Z,13.63
2019-04-03T23:57:04.399Z,13.63
2019-04-03T23:59:35.086Z,13.87
